KACY/ACY METAR and TAF weather

Enter ICAO airport designator
Station Type Date Time Source
KACY METAR 2019/10/18 05:54 UTC NOAA

KACY 180554Z 28011KT 10SM CLR 10/04 A2974 RMK AO2 SLP071 T01000039 10139 20100 53015


Station Type Date Time Source
KACY Decoded METAR 2019/10/18 05:54 UTC NOAA

ATLANTIC CITY INTERNATIONAL, NJ, United States (KACY) 39-28N 74-35W 35M
Oct 18, 2019 - 01:54 AM EDT / 2019.10.18 0554 UTC
Wind: from the W (280 degrees) at 13 MPH (11 KT):0
Visibility: 10 mile(s):0
Sky conditions: clear
Temperature: 50.0 F (10.0 C)
Dew Point: 39.0 F (3.9 C)
Relative Humidity: 65%
Pressure (altimeter): 29.74 in. Hg (1007 hPa)
Pressure tendency: 0.04 inches (1.5 hPa) higher than three hours ago
ob: KACY 180554Z 28011KT 10SM CLR 10/04 A2974 RMK AO2 SLP071 T01000039 10139 20100 53015
cycle: 6

Station Type Date Time Source
KACY TAF 2019/10/18 06:30 UTC NOAA

TAF KACY 180528Z 1806/1906 29010KT P6SM FEW040
FM181500 31012G22KT P6SM SCT045
FM182200 32011KT P6SM FEW040
FM190500 34007KT P6SM FEW250

Example: see airport list